Time;durP1;ratioP1;P1;durP2;ratioP2;P2;SDS_P1;SDS_P2;PMS_P1;PMS_P2;Temp;Humidity;BMP_temperature;BMP_pressure;BME280_temperature;BME280_humidity;BME280_pressure;Samples;Min_cycle;Max_cycle;Signal;HPM_P1;HPM_P2
2021/06/02 00:02:01;;;;;;;2.75;2.20;;;8.70;99.90;;;;;;5082837;28;20565;-71
2021/06/02 00:04:33;;;;;;;4.20;2.50;;;8.70;99.90;;;;;;5082840;28;20224;-70
2021/06/02 00:07:02;;;;;;;4.13;2.35;;;8.70;99.90;;;;;;5083373;28;20288;-70
2021/06/02 00:09:29;;;;;;;3.00;2.42;;;8.60;99.90;;;;;;5079650;28;20832;-70
2021/06/02 00:11:56;;;;;;;7.45;2.58;;;8.60;99.90;;;;;;5084445;28;20207;-70
2021/06/02 00:14:24;;;;;;;5.50;2.80;;;8.50;99.90;;;;;;5074830;28;20225;-70
2021/06/02 00:16:51;;;;;;;4.07;2.40;;;8.50;99.90;;;;;;5086782;28;20196;-71
2021/06/02 00:19:16;;;;;;;5.43;3.10;;;8.40;99.90;;;;;;5066492;28;20199;-70
2021/06/02 00:21:43;;;;;;;3.80;2.50;;;8.30;99.90;;;;;;5087919;28;20655;-70
2021/06/02 00:24:09;;;;;;;5.50;2.60;;;8.30;99.90;;;;;;5088357;28;20228;-71
2021/06/02 00:26:36;;;;;;;3.85;2.65;;;8.20;99.90;;;;;;5085071;28;20773;-71
2021/06/02 00:29:06;;;;;;;6.28;2.60;;;8.20;99.90;;;;;;5088042;28;20588;-70
2021/06/02 00:31:33;;;;;;;5.60;2.97;;;8.10;99.90;;;;;;5066609;28;20235;-71
2021/06/02 00:34:03;;;;;;;6.30;2.75;;;8.10;99.90;;;;;;5086437;28;20200;-70
2021/06/02 00:36:30;;;;;;;5.78;2.92;;;8.10;99.90;;;;;;5082332;28;20220;-71
2021/06/02 00:38:56;;;;;;;6.10;2.85;;;8.10;99.90;;;;;;5086346;28;20204;-71
2021/06/02 00:41:22;;;;;;;6.25;2.67;;;8.10;99.90;;;;;;5081449;28;20193;-70
2021/06/02 00:43:49;;;;;;;6.85;2.70;;;8.00;99.90;;;;;;5086677;28;20223;-70
2021/06/02 00:46:15;;;;;;;6.10;2.75;;;8.00;99.90;;;;;;5083581;28;20276;-71
2021/06/02 00:48:45;;;;;;;4.28;2.50;;;7.90;99.90;;;;;;5067707;28;20526;-71
2021/06/02 00:51:11;;;;;;;5.43;2.60;;;7.90;99.90;;;;;;5084295;28;20196;-70
2021/06/02 00:53:38;;;;;;;9.80;2.70;;;7.90;99.90;;;;;;5086799;28;20207;-70
2021/06/02 00:56:05;;;;;;;3.72;2.72;;;7.80;99.90;;;;;;5085782;28;20246;-71
2021/06/02 00:58:40;;;;;;;4.40;2.60;;;7.80;99.90;;;;;;5084825;28;20184;-70
2021/06/02 01:01:06;;;;;;;4.97;2.83;;;7.80;99.90;;;;;;5086266;28;20743;-70
2021/06/02 01:03:35;;;;;;;5.15;2.83;;;7.80;99.90;;;;;;5083701;28;20230;-70
2021/06/02 01:06:02;;;;;;;3.50;2.40;;;7.80;99.90;;;;;;5069356;28;20195;-71
2021/06/02 01:08:30;;;;;;;7.15;2.67;;;7.70;99.90;;;;;;5084275;28;20806;-71
2021/06/02 01:10:56;;;;;;;4.32;2.70;;;7.60;99.90;;;;;;5084845;28;20188;-71
2021/06/02 01:13:23;;;;;;;3.50;2.60;;;7.60;99.90;;;;;;5086384;28;20227;-71
2021/06/02 01:15:50;;;;;;;4.50;2.65;;;7.60;99.90;;;;;;5084765;28;20261;-71
2021/06/02 01:18:17;;;;;;;4.63;2.92;;;7.50;99.90;;;;;;5085286;28;20711;-71
2021/06/02 01:20:44;;;;;;;7.78;2.92;;;7.50;99.90;;;;;;5086490;28;20622;-71
2021/06/02 01:23:11;;;;;;;3.67;2.60;;;7.50;99.90;;;;;;5084336;28;20650;-71
2021/06/02 01:25:39;;;;;;;3.97;2.55;;;7.50;99.90;;;;;;5084016;28;20215;-71
2021/06/02 01:28:05;;;;;;;3.30;2.50;;;7.40;99.90;;;;;;5083241;28;20222;-71
2021/06/02 01:30:32;;;;;;;4.35;2.75;;;7.40;99.90;;;;;;5062255;28;20204;-71
2021/06/02 01:33:03;;;;;;;5.70;2.70;;;7.40;99.90;;;;;;5085138;28;20756;-71
2021/06/02 01:35:54;;;;;;;6.05;2.95;;;7.30;99.90;;;;;;5082770;28;20204;-71
2021/06/02 01:38:58;;;;;;;4.78;2.70;;;7.30;99.90;;;;;;5083829;28;20281;-70
2021/06/02 01:41:29;;;;;;;6.57;2.88;;;7.30;99.90;;;;;;5083607;28;20619;-69
2021/06/02 01:44:22;;;;;;;4.07;2.72;;;7.30;99.90;;;;;;5084415;28;20267;-70
2021/06/02 01:47:19;;;;;;;5.00;2.70;;;7.30;99.90;;;;;;5067561;28;21442;-69
2021/06/02 01:50:13;;;;;;;4.70;2.83;;;7.20;99.90;;;;;;5063258;28;20234;-70
2021/06/02 01:52:41;;;;;;;7.65;2.83;;;7.30;99.90;;;;;;5086804;28;20196;-70
2021/06/02 01:55:26;;;;;;;5.07;2.60;;;7.30;99.90;;;;;;5067612;28;20206;-70
2021/06/02 01:58:11;;;;;;;4.25;2.80;;;7.30;99.90;;;;;;5082166;28;20203;-70
2021/06/02 02:01:24;;;;;;;5.80;2.90;;;7.30;99.90;;;;;;5081396;28;20231;-70
2021/06/02 02:04:30;;;;;;;4.60;2.80;;;7.30;99.90;;;;;;5052246;28;20333;-71
2021/06/02 02:07:07;;;;;;;8.27;2.70;;;7.30;99.90;;;;;;5082917;28;20251;-70
2021/06/02 02:10:03;;;;;;;6.53;2.75;;;7.30;99.90;;;;;;5083545;28;20676;-70
2021/06/02 02:12:35;;;;;;;5.43;2.72;;;7.30;99.90;;;;;;5081544;28;20223;-70
2021/06/02 02:15:25;;;;;;;6.65;2.55;;;7.20;99.90;;;;;;5083918;28;20196;-70
2021/06/02 02:18:28;;;;;;;5.60;2.67;;;7.20;99.90;;;;;;5083311;28;20196;-70
2021/06/02 02:21:11;;;;;;;3.85;2.80;;;7.20;99.90;;;;;;5083675;28;20761;-71
2021/06/02 02:24:02;;;;;;;5.18;2.90;;;7.20;99.90;;;;;;5082776;28;20223;-70
2021/06/02 02:26:50;;;;;;;3.95;2.47;;;7.20;99.90;;;;;;5052044;28;20243;-69
2021/06/02 02:29:38;;;;;;;8.15;2.95;;;7.20;99.90;;;;;;5080733;28;20528;-70
2021/06/02 02:32:25;;;;;;;6.78;2.88;;;7.30;99.90;;;;;;5084701;28;20192;-70
2021/06/02 02:34:53;;;;;;;9.95;3.22;;;7.30;99.90;;;;;;5080536;28;20591;-70
2021/06/02 02:37:42;;;;;;;5.72;3.15;;;7.50;99.90;;;;;;5073198;28;20188;-70
2021/06/02 02:40:22;;;;;;;6.25;2.83;;;7.70;99.90;;;;;;5079053;28;20230;-70
2021/06/02 02:43:08;;;;;;;3.88;2.90;;;8.00;99.90;;;;;;5078555;28;20200;-70
2021/06/02 02:45:33;;;;;;;4.10;2.60;;;8.20;99.90;;;;;;5077584;28;20347;-70
2021/06/02 02:48:30;;;;;;;5.22;2.97;;;8.40;99.90;;;;;;5077033;28;20279;-70
2021/06/02 02:51:25;;;;;;;6.40;2.90;;;8.70;99.90;;;;;;5075467;28;20524;-69
2021/06/02 02:54:21;;;;;;;4.28;2.80;;;9.00;99.90;;;;;;5056947;28;20196;-70
2021/06/02 02:57:06;;;;;;;5.25;2.95;;;9.20;99.90;;;;;;5077740;28;20199;-70
2021/06/02 03:00:01;;;;;;;4.15;2.50;;;9.40;99.90;;;;;;5076546;28;20188;-70
2021/06/02 03:02:41;;;;;;;6.43;2.85;;;9.50;99.90;;;;;;5075956;28;20207;-70
2021/06/02 03:05:12;;;;;;;4.55;2.88;;;9.50;99.90;;;;;;5076283;28;20214;-70
2021/06/02 03:07:40;;;;;;;4.93;3.20;;;9.60;99.90;;;;;;5076627;28;20788;-70
2021/06/02 03:10:14;;;;;;;3.83;2.72;;;9.70;99.90;;;;;;5075295;28;20218;-70
2021/06/02 03:13:04;;;;;;;6.20;3.38;;;9.70;99.90;;;;;;5059154;28;20673;-70
2021/06/02 03:15:44;;;;;;;3.53;2.65;;;9.80;99.90;;;;;;5075926;28;20203;-70
2021/06/02 03:18:22;;;;;;;4.60;2.83;;;9.90;99.90;;;;;;5078057;28;21061;-70
2021/06/02 03:20:57;;;;;;;3.45;2.50;;;9.90;99.90;;;;;;5075437;28;20207;-70
2021/06/02 03:24:05;;;;;;;3.90;2.75;;;10.00;99.90;;;;;;5075580;28;20199;-70
2021/06/02 03:26:34;;;;;;;4.88;2.60;;;10.10;99.90;;;;;;5076113;28;20927;-70
2021/06/02 03:29:10;;;;;;;6.78;2.55;;;10.20;99.90;;;;;;5077745;28;20998;-70
2021/06/02 03:32:13;;;;;;;3.28;2.60;;;10.20;99.90;;;;;;5077740;28;20219;-70
2021/06/02 03:34:57;;;;;;;4.65;2.83;;;10.30;99.90;;;;;;5078426;28;20219;-70
2021/06/02 03:37:34;;;;;;;4.93;2.85;;;10.40;99.90;;;;;;5077055;28;20207;-70
2021/06/02 03:40:38;;;;;;;5.85;3.03;;;10.40;99.90;;;;;;5075599;28;20640;-69
2021/06/02 03:43:10;;;;;;;6.10;2.95;;;10.60;99.90;;;;;;5077723;28;20261;-70
2021/06/02 03:45:38;;;;;;;3.70;2.65;;;10.60;99.90;;;;;;5078661;28;20203;-69
2021/06/02 03:48:14;;;;;;;3.33;2.40;;;10.70;99.90;;;;;;5080930;28;20268;-69
2021/06/02 03:51:01;;;;;;;3.50;2.42;;;10.80;99.90;;;;;;5082032;28;20909;-69
2021/06/02 03:53:45;;;;;;;6.32;2.80;;;10.80;99.90;;;;;;5081829;28;20191;-69
2021/06/02 03:56:34;;;;;;;3.63;2.45;;;10.90;99.90;;;;;;5076286;28;20239;-69
2021/06/02 03:59:10;;;;;;;5.82;2.80;;;11.00;99.90;;;;;;5078839;28;20192;-70
2021/06/02 04:01:52;;;;;;;3.05;2.50;;;11.00;99.90;;;;;;5080165;28;20802;-70
2021/06/02 04:04:21;;;;;;;3.90;2.58;;;11.10;99.90;;;;;;5081410;28;20215;-68
2021/06/02 04:06:53;;;;;;;6.60;2.70;;;11.20;99.90;;;;;;5059367;28;20563;-69
2021/06/02 04:09:26;;;;;;;3.92;2.75;;;11.30;99.90;;;;;;5080395;28;20621;-70
2021/06/02 04:12:04;;;;;;;4.43;2.72;;;11.30;99.90;;;;;;5082396;28;20273;-70
2021/06/02 04:14:35;;;;;;;4.57;2.78;;;11.40;99.90;;;;;;5080523;28;20590;-69
2021/06/02 04:17:01;;;;;;;4.20;2.67;;;11.50;99.90;;;;;;5079941;28;20196;-69
2021/06/02 04:19:32;;;;;;;7.90;2.85;;;11.60;99.90;;;;;;5080478;28;20749;-68
2021/06/02 04:22:08;;;;;;;3.35;2.42;;;11.70;99.90;;;;;;5083053;28;20199;-69
2021/06/02 04:24:36;;;;;;;4.32;2.75;;;11.80;99.90;;;;;;5081531;28;20526;-69
2021/06/02 04:27:03;;;;;;;4.53;2.90;;;12.00;99.90;;;;;;5084649;28;20227;-69
2021/06/02 04:29:30;;;;;;;3.90;2.65;;;12.10;99.90;;;;;;5081945;28;20299;-69
2021/06/02 04:32:07;;;;;;;3.85;2.60;;;12.30;99.90;;;;;;5081675;28;20759;-68
2021/06/02 04:34:34;;;;;;;7.90;2.60;;;12.40;99.90;;;;;;5063864;28;20762;-68
2021/06/02 04:37:07;;;;;;;4.07;2.78;;;12.40;99.90;;;;;;5081619;28;20297;-69
2021/06/02 04:39:37;;;;;;;8.38;3.00;;;12.50;99.90;;;;;;5075176;28;20195;-70
2021/06/02 04:42:04;;;;;;;3.83;2.60;;;12.60;99.90;;;;;;5068759;28;20196;-69
2021/06/02 04:44:31;;;;;;;3.72;2.60;;;12.70;99.90;;;;;;5079644;28;20616;-71
2021/06/02 04:46:58;;;;;;;3.38;2.55;;;12.80;99.90;;;;;;5081892;28;20860;-71
2021/06/02 04:49:37;;;;;;;4.30;2.45;;;12.90;99.90;;;;;;5084019;28;20235;-69
2021/06/02 04:52:40;;;;;;;5.30;3.47;;;13.00;99.90;;;;;;5081381;28;20180;-72
2021/06/02 04:55:43;;;;;;;5.10;2.53;;;13.10;99.90;;;;;;5078657;28;20231;-71
2021/06/02 04:58:26;;;;;;;4.43;2.55;;;13.30;99.90;;;;;;5079039;28;20200;-70
2021/06/02 05:01:09;;;;;;;7.00;2.80;;;13.40;99.90;;;;;;5077101;28;20196;-70
2021/06/02 05:03:41;;;;;;;4.35;2.35;;;13.60;99.90;;;;;;5079801;28;20573;-70
2021/06/02 05:06:43;;;;;;;3.08;2.38;;;13.70;99.90;;;;;;5079325;28;21057;-70
2021/06/02 05:09:46;;;;;;;4.05;2.47;;;13.80;99.90;;;;;;5064832;28;20235;-69
2021/06/02 05:12:15;;;;;;;5.18;2.80;;;13.90;99.90;;;;;;5079573;28;20188;-70
2021/06/02 05:15:18;;;;;;;5.55;2.53;;;14.00;99.90;;;;;;5074652;28;20702;-69
2021/06/02 05:17:57;;;;;;;3.25;2.50;;;14.10;99.90;;;;;;5076825;28;20192;-70
2021/06/02 05:20:51;;;;;;;3.78;2.25;;;14.10;99.90;;;;;;5082139;28;20219;-70
2021/06/02 05:24:00;;;;;;;3.08;2.10;;;14.30;99.90;;;;;;5082337;28;20223;-71
2021/06/02 05:27:12;;;;;;;7.20;2.20;;;14.60;99.90;;;;;;5039861;28;20219;-69
2021/06/02 05:30:04;;;;;;;3.17;2.30;;;14.50;99.90;;;;;;5076700;28;20212;-70
2021/06/02 05:32:32;;;;;;;7.00;2.60;;;14.70;99.90;;;;;;5044283;28;20208;-70
2021/06/02 05:35:15;;;;;;;3.60;2.30;;;14.70;99.90;;;;;;5082550;28;20200;-70
2021/06/02 05:37:58;;;;;;;5.40;2.78;;;14.80;99.90;;;;;;5075599;28;20243;-70
2021/06/02 05:41:01;;;;;;;3.97;2.40;;;15.00;99.90;;;;;;5081016;28;20688;-70
2021/06/02 05:43:46;;;;;;;3.22;2.30;;;15.10;99.90;;;;;;5081501;28;20207;-70
2021/06/02 05:46:42;;;;;;;6.28;2.85;;;15.20;99.90;;;;;;5075130;28;20687;-70
2021/06/02 05:49:32;;;;;;;5.22;2.42;;;15.30;99.90;;;;;;5062494;28;20585;-70
2021/06/02 05:52:20;;;;;;;4.60;2.38;;;15.30;99.90;;;;;;5080537;28;20196;-70
2021/06/02 05:55:04;;;;;;;7.05;2.25;;;15.50;99.90;;;;;;5083235;28;20200;-69
2021/06/02 05:57:41;;;;;;;8.25;2.58;;;15.60;99.90;;;;;;5075010;28;20291;-69
2021/06/02 06:00:41;;;;;;;3.00;2.25;;;15.70;99.90;;;;;;5080297;28;20757;-69
2021/06/02 06:03:09;;;;;;;3.15;2.33;;;15.70;99.90;;;;;;5081188;28;20208;-69
2021/06/02 06:06:10;;;;;;;3.58;2.33;;;15.80;99.90;;;;;;5057441;28;20255;-72
2021/06/02 06:09:02;;;;;;;3.00;2.30;;;16.00;99.90;;;;;;5079117;28;20269;-71
2021/06/02 06:11:42;;;;;;;4.57;2.30;;;16.20;99.90;;;;;;5079743;28;20199;-72
2021/06/02 06:14:21;;;;;;;4.65;2.58;;;16.40;99.90;;;;;;5064684;28;20669;-71
2021/06/02 06:17:31;;;;;;;3.97;2.20;;;16.60;99.90;;;;;;5081342;28;20294;-71
2021/06/02 06:20:30;;;;;;;5.05;2.42;;;16.60;99.90;;;;;;4997771;28;20274;-71
2021/06/02 06:23:05;;;;;;;3.78;2.28;;;16.60;99.90;;;;;;5079160;28;20208;-71
2021/06/02 06:25:39;;;;;;;4.78;2.45;;;16.60;99.90;;;;;;5075943;28;20559;-71
2021/06/02 06:28:17;;;;;;;2.83;1.90;;;16.90;99.90;;;;;;5071021;28;20192;-71
2021/06/02 06:30:49;;;;;;;3.35;1.95;;;17.20;99.90;;;;;;5074303;28;20339;-71
2021/06/02 06:33:17;;;;;;;4.45;1.98;;;17.30;99.90;;;;;;5073476;28;20200;-71
2021/06/02 06:35:45;;;;;;;4.80;2.25;;;17.40;99.90;;;;;;5056629;28;20287;-71
2021/06/02 06:38:50;;;;;;;2.72;1.90;;;17.60;99.90;;;;;;5078872;28;20678;-71
2021/06/02 06:41:18;;;;;;;5.22;2.50;;;17.60;99.90;;;;;;5039115;28;20208;-70
2021/06/02 06:43:46;;;;;;;5.63;2.20;;;17.60;99.90;;;;;;5074029;28;20197;-70
2021/06/02 06:46:15;;;;;;;5.05;2.08;;;17.60;99.90;;;;;;5077120;28;20200;-70
2021/06/02 06:48:44;;;;;;;3.75;2.33;;;17.70;99.90;;;;;;5073685;28;20287;-71
2021/06/02 06:51:14;;;;;;;2.53;2.00;;;17.80;99.90;;;;;;5059916;28;20238;-71
2021/06/02 06:53:41;;;;;;;3.38;2.40;;;17.80;99.90;;;;;;5079034;28;20281;-70
2021/06/02 06:56:09;;;;;;;2.80;2.08;;;18.10;99.90;;;;;;5076765;28;20196;-70
2021/06/02 06:58:35;;;;;;;3.17;2.00;;;18.30;99.90;;;;;;5075391;28;20197;-71
2021/06/02 07:01:02;;;;;;;8.38;2.45;;;18.20;99.90;;;;;;5075900;28;20210;-71
2021/06/02 07:03:29;;;;;;;5.20;2.22;;;18.50;99.90;;;;;;5078192;28;20227;-71
2021/06/02 07:05:55;;;;;;;5.93;2.45;;;18.50;99.90;;;;;;5081595;28;20764;-70
2021/06/02 07:08:21;;;;;;;5.57;2.20;;;18.60;99.90;;;;;;5082462;28;20195;-72
2021/06/02 07:10:46;;;;;;;7.10;2.28;;;18.70;99.90;;;;;;5058442;28;20220;-71
2021/06/02 07:13:14;;;;;;;5.18;2.30;;;18.70;99.90;;;;;;5077295;28;20889;-72
2021/06/02 07:15:41;;;;;;;8.82;2.38;;;18.80;99.90;;;;;;5073919;28;20273;-70
2021/06/02 07:18:07;;;;;;;3.50;2.20;;;19.10;99.90;;;;;;5075951;28;20203;-71
2021/06/02 07:20:35;;;;;;;2.92;2.17;;;19.30;99.90;;;;;;5079289;28;20199;-72
2021/06/02 07:23:01;;;;;;;2.35;2.10;;;19.70;99.90;;;;;;5075822;28;20210;-72
2021/06/02 07:25:30;;;;;;;7.47;2.38;;;19.60;99.90;;;;;;5079097;28;20219;-71
2021/06/02 07:27:59;;;;;;;7.40;2.50;;;19.50;99.90;;;;;;5059231;28;20639;-71
2021/06/02 07:30:26;;;;;;;2.22;1.95;;;19.40;99.90;;;;;;5078457;28;20295;-72
2021/06/02 07:32:53;;;;;;;6.85;2.30;;;19.50;99.90;;;;;;5059118;28;20196;-72
2021/06/02 07:35:19;;;;;;;3.58;1.92;;;19.50;99.90;;;;;;5076566;28;21059;-72
2021/06/02 07:37:45;;;;;;;3.67;2.10;;;19.70;99.90;;;;;;5060776;28;20234;-72
2021/06/02 07:40:11;;;;;;;6.68;1.92;;;20.10;99.90;;;;;;5058654;28;20200;-71
2021/06/02 07:42:37;;;;;;;3.85;2.13;;;20.40;99.90;;;;;;5058408;28;20231;-72
2021/06/02 07:45:04;;;;;;;3.13;2.00;;;20.50;99.90;;;;;;5059389;28;21026;-71
2021/06/02 07:47:30;;;;;;;3.38;1.98;;;20.50;99.90;;;;;;5076602;28;20250;-71
2021/06/02 07:49:56;;;;;;;2.58;2.03;;;20.70;99.90;;;;;;5075777;28;20216;-72
2021/06/02 07:52:23;;;;;;;4.03;2.20;;;21.20;99.90;;;;;;5066664;28;20192;-71
2021/06/02 07:54:49;;;;;;;5.93;2.10;;;21.70;98.20;;;;;;5077627;28;20271;-72
2021/06/02 07:57:15;;;;;;;6.45;2.35;;;21.50;97.60;;;;;;5064163;28;20191;-72
2021/06/02 07:59:41;;;;;;;4.25;1.90;;;21.30;98.30;;;;;;5077106;28;20574;-71
2021/06/02 08:02:07;;;;;;;7.57;2.25;;;21.50;97.40;;;;;;5077119;28;20201;-73
2021/06/02 08:04:33;;;;;;;5.38;2.15;;;21.50;96.40;;;;;;5057975;28;20232;-72
2021/06/02 08:07:01;;;;;;;3.95;2.00;;;21.30;97.50;;;;;;5053834;28;20202;-72
2021/06/02 08:09:27;;;;;;;5.63;2.13;;;21.60;95.90;;;;;;5054424;28;20255;-73
2021/06/02 08:11:52;;;;;;;3.08;2.20;;;21.50;96.10;;;;;;5044333;28;20189;-70
2021/06/02 08:14:18;;;;;;;3.53;2.20;;;21.70;97.10;;;;;;5056993;28;20220;-71
2021/06/02 08:16:45;;;;;;;2.60;1.70;;;21.80;95.50;;;;;;5054465;28;20222;-73
2021/06/02 08:19:11;;;;;;;6.40;1.95;;;21.90;94.20;;;;;;5054714;28;20621;-73
2021/06/02 08:21:38;;;;;;;4.85;2.00;;;22.10;95.20;;;;;;5049205;28;20209;-72
2021/06/02 08:24:04;;;;;;;5.97;2.25;;;22.20;94.10;;;;;;5057315;28;20207;-72
2021/06/02 08:26:35;;;;;;;4.43;2.13;;;22.40;94.90;;;;;;5053446;28;20198;-71
2021/06/02 08:29:01;;;;;;;4.38;2.03;;;22.30;94.20;;;;;;5054395;28;20503;-72
2021/06/02 08:31:27;;;;;;;5.75;2.00;;;22.10;94.30;;;;;;5058475;28;20201;-73
2021/06/02 08:33:53;;;;;;;4.28;2.13;;;22.50;93.10;;;;;;5060201;28;20200;-73
2021/06/02 08:36:18;;;;;;;6.57;1.83;;;22.40;93.20;;;;;;5062829;28;20203;-73
2021/06/02 08:38:44;;;;;;;4.90;2.33;;;22.80;92.60;;;;;;5062359;28;20201;-73
2021/06/02 08:41:10;;;;;;;4.25;2.10;;;22.70;93.90;;;;;;5055126;28;20223;-74
2021/06/02 08:43:35;;;;;;;4.38;1.92;;;22.90;91.30;;;;;;5058753;28;20197;-73
2021/06/02 08:46:01;;;;;;;7.82;2.03;;;22.90;92.00;;;;;;5058310;28;20698;-72
2021/06/02 08:48:27;;;;;;;5.45;2.03;;;22.90;91.60;;;;;;5054300;28;20608;-73
2021/06/02 08:50:54;;;;;;;5.03;2.20;;;22.90;92.80;;;;;;5055391;28;20204;-72
2021/06/02 08:53:20;;;;;;;3.60;1.85;;;23.10;91.00;;;;;;5063011;28;20197;-72
2021/06/02 08:55:46;;;;;;;4.68;2.05;;;22.70;91.80;;;;;;5058020;28;20676;-72
2021/06/02 08:58:21;;;;;;;6.93;2.15;;;22.80;90.10;;;;;;5060256;28;20193;-70
2021/06/02 09:00:47;;;;;;;8.23;2.00;;;23.10;90.50;;;;;;5062383;28;20203;-71
2021/06/02 09:03:13;;;;;;;5.47;1.92;;;23.30;90.10;;;;;;5057247;28;20564;-71
2021/06/02 09:05:39;;;;;;;2.45;1.80;;;22.90;89.60;;;;;;5056502;28;20236;-70
2021/06/02 09:08:07;;;;;;;3.10;1.88;;;23.30;88.90;;;;;;5059373;28;20201;-73
2021/06/02 09:10:44;;;;;;;10.07;1.88;;;23.70;89.50;;;;;;5061140;28;20686;-74
2021/06/02 09:13:20;;;;;;;3.58;1.90;;;24.20;88.70;;;;;;5059872;28;20203;-75
2021/06/02 09:15:49;;;;;;;4.70;1.90;;;23.90;86.80;;;;;;5053850;28;20209;-71
2021/06/02 09:18:20;;;;;;;3.22;2.00;;;24.30;85.00;;;;;;5056546;28;20654;-71
2021/06/02 09:20:47;;;;;;;3.85;1.80;;;24.70;87.40;;;;;;5062826;28;20196;-70
2021/06/02 09:23:36;;;;;;;5.50;2.00;;;24.90;82.50;;;;;;5062582;28;20220;-73
2021/06/02 09:26:11;;;;;;;3.38;1.92;;;24.70;82.60;;;;;;5058603;28;20196;-73
2021/06/02 09:28:54;;;;;;;3.42;1.80;;;24.70;82.60;;;;;;5061225;28;20672;-73
2021/06/02 09:31:51;;;;;;;5.72;1.88;;;24.30;80.80;;;;;;5057494;28;20200;-74
2021/06/02 09:34:19;;;;;;;5.50;2.10;;;24.50;83.30;;;;;;5055976;28;20748;-73
2021/06/02 09:36:48;;;;;;;4.05;1.90;;;24.30;80.90;;;;;;5053839;28;20348;-73
2021/06/02 09:39:19;;;;;;;5.60;2.40;;;24.20;82.70;;;;;;5062595;28;20256;-74
2021/06/02 09:41:51;;;;;;;4.22;1.80;;;25.00;81.40;;;;;;5059536;28;20209;-73
2021/06/02 09:44:21;;;;;;;6.45;1.90;;;25.20;76.70;;;;;;5062080;28;20812;-71
2021/06/02 09:47:01;;;;;;;3.25;1.88;;;25.10;77.50;;;;;;5056336;28;20554;-74
2021/06/02 09:49:28;;;;;;;6.20;2.00;;;25.30;80.60;;;;;;5056644;28;21182;-72
2021/06/02 09:51:54;;;;;;;4.57;1.92;;;25.80;76.50;;;;;;5059282;28;20272;-72
2021/06/02 09:54:24;;;;;;;3.85;1.90;;;25.70;74.10;;;;;;5059972;28;20272;-72
2021/06/02 09:56:50;;;;;;;4.95;1.83;;;25.50;71.40;;;;;;5059937;28;20223;-74
2021/06/02 09:59:18;;;;;;;8.85;2.20;;;25.40;74.40;;;;;;5057914;28;20197;-73
2021/06/02 10:02:01;;;;;;;4.70;1.70;;;25.20;76.50;;;;;;5057090;28;20616;-73
2021/06/02 10:04:39;;;;;;;7.00;2.08;;;25.10;79.10;;;;;;5063634;28;20228;-73
2021/06/02 10:07:17;;;;;;;9.90;2.42;;;25.80;77.10;;;;;;5079932;28;20651;-73
2021/06/02 10:09:43;;;;;;;4.78;1.70;;;26.30;74.60;;;;;;5079137;28;20685;-73
2021/06/02 10:12:11;;;;;;;2.83;1.90;;;26.10;71.60;;;;;;5062400;28;20188;-73
2021/06/02 10:14:40;;;;;;;13.50;2.17;;;26.30;68.10;;;;;;5078993;28;20188;-73
2021/06/02 10:17:26;;;;;;;3.90;2.03;;;26.20;73.10;;;;;;5078892;28;20188;-73
2021/06/02 10:19:52;;;;;;;5.45;2.05;;;26.60;73.50;;;;;;5061483;28;20362;-73
2021/06/02 10:22:21;;;;;;;5.15;1.85;;;26.90;70.50;;;;;;5081818;28;20709;-73
2021/06/02 10:24:49;;;;;;;6.78;1.90;;;27.50;70.90;;;;;;5079739;28;20203;-74
2021/06/02 10:27:15;;;;;;;2.65;1.80;;;28.40;70.00;;;;;;5077998;28;20282;-74
2021/06/02 10:29:41;;;;;;;6.53;1.77;;;28.70;66.10;;;;;;5060109;28;20226;-74
2021/06/02 10:32:08;;;;;;;4.40;1.70;;;28.20;65.20;;;;;;5061087;28;20613;-73
2021/06/02 10:34:33;;;;;;;4.43;1.98;;;27.20;66.60;;;;;;5079775;28;20280;-74
2021/06/02 10:36:59;;;;;;;10.30;2.10;;;26.60;68.50;;;;;;5077837;28;20291;-73
2021/06/02 10:39:27;;;;;;;2.78;1.60;;;26.60;70.20;;;;;;5076620;28;20289;-73
2021/06/02 10:42:00;;;;;;;6.05;1.98;;;27.20;67.30;;;;;;5080201;28;20210;-73
2021/06/02 10:44:34;;;;;;;2.53;1.75;;;27.00;66.30;;;;;;5079754;28;20215;-73
2021/06/02 10:47:01;;;;;;;2.38;1.85;;;27.20;68.00;;;;;;5074047;28;20226;-73
2021/06/02 10:49:32;;;;;;;2.20;1.70;;;26.80;68.30;;;;;;5059531;28;20208;-74
2021/06/02 10:51:58;;;;;;;4.68;2.00;;;26.00;65.60;;;;;;5078500;28;20839;-73
2021/06/02 10:54:37;;;;;;;4.68;1.90;;;25.70;67.50;;;;;;5077418;28;20299;-73
2021/06/02 10:57:03;;;;;;;10.85;1.83;;;26.10;70.60;;;;;;5077498;28;20187;-73
2021/06/02 10:59:34;;;;;;;4.32;1.80;;;27.00;67.40;;;;;;5075976;28;20198;-73
2021/06/02 11:02:14;;;;;;;4.72;1.90;;;27.50;66.00;;;;;;5080528;28;20200;-73
2021/06/02 11:04:40;;;;;;;4.38;1.80;;;27.80;65.00;;;;;;5050144;28;20231;-73
2021/06/02 11:07:20;;;;;;;4.55;1.80;;;27.30;61.80;;;;;;5077074;28;20608;-72
2021/06/02 11:10:03;;;;;;;5.95;1.75;;;27.10;60.90;;;;;;5050137;28;20619;-73
2021/06/02 11:12:49;;;;;;;3.85;1.60;;;27.20;62.80;;;;;;5073240;28;20188;-74
2021/06/02 11:15:46;;;;;;;4.68;1.90;;;26.90;62.30;;;;;;5074036;28;20194;-74
2021/06/02 11:18:14;;;;;;;3.28;1.73;;;27.20;62.70;;;;;;5076369;28;20203;-73
2021/06/02 11:21:00;;;;;;;5.18;2.20;;;27.10;65.20;;;;;;5078418;28;20202;-73
2021/06/02 11:23:33;;;;;;;4.97;1.73;;;27.20;66.60;;;;;;5076013;28;20206;-74
2021/06/02 11:26:24;;;;;;;2.78;1.90;;;28.10;63.30;;;;;;5071292;28;21444;-74
2021/06/02 11:28:50;;;;;;;4.97;2.03;;;28.70;63.20;;;;;;5054710;28;20220;-73
2021/06/02 11:31:26;;;;;;;5.80;1.80;;;28.70;60.60;;;;;;5054030;28;20191;-73
2021/06/02 11:34:13;;;;;;;4.63;2.13;;;27.30;61.00;;;;;;5056121;28;20191;-72
2021/06/02 11:36:57;;;;;;;7.50;1.80;;;26.30;64.60;;;;;;5075708;28;21192;-71
2021/06/02 11:39:24;;;;;;;4.65;2.03;;;26.00;64.40;;;;;;5067994;28;20272;-72
2021/06/02 11:41:57;;;;;;;4.80;2.15;;;26.40;70.80;;;;;;5067608;28;20199;-74
2021/06/02 11:44:25;;;;;;;4.20;1.80;;;26.80;66.10;;;;;;5075607;28;20196;-73
2021/06/02 11:46:51;;;;;;;4.30;1.90;;;27.30;63.70;;;;;;5075446;28;21173;-74
2021/06/02 11:49:49;;;;;;;5.53;2.03;;;27.00;64.20;;;;;;5061078;28;20208;-74
2021/06/02 11:52:17;;;;;;;4.32;2.05;;;25.80;65.20;;;;;;5015036;28;20211;-75
2021/06/02 11:54:53;;;;;;;5.38;1.70;;;25.30;66.80;;;;;;5073769;28;20199;-75
2021/06/02 11:57:25;;;;;;;5.32;1.77;;;25.20;66.60;;;;;;5071177;28;20192;-72
2021/06/02 11:59:51;;;;;;;4.22;1.80;;;24.50;69.10;;;;;;5073224;28;20234;-72
2021/06/02 12:02:17;;;;;;;4.57;1.90;;;24.00;70.80;;;;;;5076076;28;20247;-72
2021/06/02 12:04:43;;;;;;;5.00;2.08;;;24.60;72.60;;;;;;5069292;28;20232;-72
2021/06/02 12:07:25;;;;;;;3.92;1.92;;;24.40;68.40;;;;;;5077060;28;20283;-72
2021/06/02 12:09:52;;;;;;;4.88;2.00;;;24.10;71.40;;;;;;5075873;28;20208;-73
2021/06/02 12:12:19;;;;;;;5.10;2.10;;;24.30;71.00;;;;;;5081247;28;21035;-73
2021/06/02 12:14:58;;;;;;;5.03;1.90;;;25.30;68.40;;;;;;5072892;28;20285;-73
2021/06/02 12:17:31;;;;;;;5.07;1.90;;;25.40;66.90;;;;;;5073841;28;20200;-74
2021/06/02 12:19:58;;;;;;;5.65;1.77;;;24.80;68.70;;;;;;5077942;28;20394;-73
2021/06/02 12:22:25;;;;;;;3.78;1.80;;;24.50;68.40;;;;;;5058664;28;20610;-73
2021/06/02 12:25:13;;;;;;;3.78;1.80;;;24.30;70.10;;;;;;5080877;28;20205;-72
2021/06/02 12:27:57;;;;;;;3.13;1.90;;;24.10;71.00;;;;;;5075348;28;20207;-74
2021/06/02 12:30:26;;;;;;;7.50;1.92;;;24.20;71.20;;;;;;5080518;28;20212;-70
2021/06/02 12:32:57;;;;;;;4.03;2.00;;;23.70;70.30;;;;;;5079183;28;20196;-72
2021/06/02 12:35:41;;;;;;;4.65;1.90;;;23.60;71.30;;;;;;5084149;28;20265;-73
2021/06/02 12:38:26;;;;;;;3.95;1.90;;;23.60;73.00;;;;;;5081133;28;21067;-72
2021/06/02 12:40:57;;;;;;;8.13;1.90;;;23.70;72.00;;;;;;5081221;28;20215;-72
2021/06/02 12:43:45;;;;;;;4.13;1.90;;;23.60;71.80;;;;;;5085537;28;20199;-72
2021/06/02 12:46:16;;;;;;;8.25;2.10;;;23.30;73.70;;;;;;5065157;28;20196;-72
2021/06/02 12:48:43;;;;;;;2.83;1.77;;;23.40;73.00;;;;;;5064885;28;20322;-74
2021/06/02 12:51:17;;;;;;;6.82;1.90;;;23.50;73.40;;;;;;5080476;28;20931;-72
2021/06/02 12:53:45;;;;;;;2.97;1.90;;;23.60;72.90;;;;;;5075755;28;20192;-70
2021/06/02 12:56:12;;;;;;;5.78;1.85;;;23.50;71.20;;;;;;5081614;28;20224;-73
2021/06/02 12:58:38;;;;;;;3.45;1.98;;;23.40;72.50;;;;;;5082362;28;20196;-71
2021/06/02 13:01:15;;;;;;;6.43;2.00;;;23.20;74.30;;;;;;5083426;28;20200;-71
2021/06/02 13:03:46;;;;;;;4.88;1.90;;;23.20;73.50;;;;;;5082720;28;20640;-72
2021/06/02 13:06:19;;;;;;;5.05;2.10;;;23.20;74.00;;;;;;5081857;28;20278;-73
2021/06/02 13:08:45;;;;;;;8.23;2.15;;;23.30;75.50;;;;;;5078832;28;20227;-72
2021/06/02 13:11:12;;;;;;;3.65;1.90;;;23.10;72.70;;;;;;5081976;28;20334;-73
2021/06/02 13:13:40;;;;;;;3.00;1.77;;;23.00;73.30;;;;;;5063747;28;20204;-73
2021/06/02 13:16:08;;;;;;;5.00;1.85;;;22.90;75.30;;;;;;5080917;28;20203;-72
2021/06/02 13:18:34;;;;;;;4.50;1.63;;;23.40;74.70;;;;;;5079818;28;20632;-71
2021/06/02 13:21:16;;;;;;;2.50;1.95;;;23.60;73.00;;;;;;5079330;28;20234;-72
2021/06/02 13:23:42;;;;;;;5.18;1.80;;;23.60;71.50;;;;;;5081232;28;20234;-71
2021/06/02 13:26:13;;;;;;;3.47;1.92;;;23.30;73.20;;;;;;5080970;28;20204;-72
2021/06/02 13:28:44;;;;;;;4.05;1.60;;;23.20;73.30;;;;;;5082477;28;20196;-73